createdAt,value
2017-12-28T00:00:05.391Z,0
2017-12-28T00:01:06.430Z,0
2017-12-28T00:02:05.960Z,0
2017-12-28T00:03:06.008Z,0
2017-12-28T00:04:05.986Z,0
2017-12-28T00:05:05.998Z,0
2017-12-28T00:06:05.990Z,0
2017-12-28T00:07:06.610Z,0
2017-12-28T00:08:06.353Z,0
2017-12-28T00:09:06.588Z,0
2017-12-28T00:10:06.348Z,0
2017-12-28T00:11:06.489Z,0
2017-12-28T00:12:07.022Z,0
2017-12-28T00:13:07.675Z,0
2017-12-28T00:14:07.374Z,0
2017-12-28T00:15:07.163Z,0
2017-12-28T00:16:08.080Z,0
2017-12-28T00:17:07.952Z,0
2017-12-28T00:18:08.806Z,0
2017-12-28T00:19:08.632Z,0
2017-12-28T00:20:08.695Z,0
2017-12-28T00:21:07.508Z,0
2017-12-28T00:22:07.191Z,0
2017-12-28T00:23:07.452Z,0
2017-12-28T00:24:06.987Z,0
2017-12-28T00:25:07.891Z,0
2017-12-28T00:26:07.318Z,0
2017-12-28T00:27:07.281Z,0
2017-12-28T00:28:08.018Z,0
2017-12-28T00:29:07.530Z,0
2017-12-28T00:30:07.604Z,0
2017-12-28T00:31:08.803Z,0
2017-12-28T00:32:08.968Z,0
2017-12-28T00:33:08.171Z,0
2017-12-28T00:34:07.665Z,0
2017-12-28T00:35:08.246Z,0
2017-12-28T00:36:08.571Z,0
2017-12-28T00:37:08.660Z,0
2017-12-28T00:38:08.551Z,0
2017-12-28T00:39:09.334Z,0
2017-12-28T00:40:08.501Z,0
2017-12-28T00:41:09.031Z,0
2017-12-28T00:42:08.500Z,0
2017-12-28T00:43:10.404Z,0
2017-12-28T00:44:09.308Z,0
2017-12-28T00:45:09.937Z,0
2017-12-28T00:46:09.349Z,0
2017-12-28T00:47:09.421Z,0
2017-12-28T00:48:09.724Z,0
2017-12-28T00:49:09.890Z,0
2017-12-28T00:50:10.341Z,0
2017-12-28T00:51:10.319Z,0
2017-12-28T00:52:10.843Z,0
2017-12-28T00:53:11.271Z,0
2017-12-28T00:54:11.245Z,0
2017-12-28T00:55:12.067Z,0
2017-12-28T00:56:11.711Z,0
2017-12-28T00:57:12.145Z,0
2017-12-28T00:58:12.079Z,0
2017-12-28T00:59:12.128Z,0
2017-12-28T01:00:12.400Z,0
2017-12-28T01:01:12.365Z,0
2017-12-28T01:02:12.390Z,0
2017-12-28T01:03:13.433Z,0
2017-12-28T01:04:12.868Z,0
2017-12-28T01:05:13.596Z,0
2017-12-28T01:06:13.347Z,0
2017-12-28T01:07:13.626Z,0
2017-12-28T01:08:13.988Z,0
2017-12-28T01:09:13.761Z,0
2017-12-28T01:10:13.837Z,0
2017-12-28T01:11:14.100Z,0
2017-12-28T01:12:14.329Z,0
2017-12-28T01:13:15.937Z,0
2017-12-28T01:14:15.288Z,0
2017-12-28T01:15:15.489Z,0
2017-12-28T01:16:15.686Z,0
2017-12-28T01:17:16.672Z,0
2017-12-28T01:18:16.452Z,0
2017-12-28T01:19:18.485Z,0
2017-12-28T01:20:15.773Z,0
2017-12-28T01:21:16.684Z,0
2017-12-28T01:22:16.196Z,0
2017-12-28T01:23:17.414Z,0
2017-12-28T01:24:16.649Z,0
2017-12-28T01:25:16.548Z,0
2017-12-28T01:26:17.550Z,0
2017-12-28T01:27:17.299Z,0
2017-12-28T01:28:17.265Z,0
2017-12-28T01:29:17.850Z,0
2017-12-28T01:30:17.660Z,0
2017-12-28T01:31:16.941Z,0
2017-12-28T01:32:16.933Z,0
2017-12-28T01:33:17.588Z,0
2017-12-28T01:34:17.550Z,0
2017-12-28T01:35:16.848Z,0
2017-12-28T01:36:17.581Z,0
2017-12-28T01:37:17.407Z,0
2017-12-28T01:38:17.305Z,0
2017-12-28T01:39:17.191Z,0
2017-12-28T01:40:19.147Z,0
2017-12-28T01:41:17.478Z,0
2017-12-28T01:42:17.725Z,0
2017-12-28T01:43:17.264Z,0
2017-12-28T01:44:17.328Z,0
2017-12-28T01:45:17.648Z,0
2017-12-28T01:46:17.943Z,0
2017-12-28T01:47:18.006Z,0
2017-12-28T01:48:18.769Z,0
2017-12-28T01:49:18.592Z,0
2017-12-28T01:50:19.762Z,0
2017-12-28T01:51:18.463Z,0
2017-12-28T01:52:18.211Z,0
2017-12-28T01:53:18.427Z,0
2017-12-28T01:54:18.841Z,0
2017-12-28T01:55:18.516Z,0
2017-12-28T01:56:18.170Z,0
2017-12-28T01:57:18.849Z,0
2017-12-28T01:58:18.504Z,0
2017-12-28T01:59:19.442Z,0
2017-12-28T02:00:19.189Z,0
2017-12-28T02:01:19.175Z,0
2017-12-28T02:02:18.939Z,0
2017-12-28T02:03:19.260Z,0
2017-12-28T02:04:19.590Z,0
2017-12-28T02:05:19.358Z,0
2017-12-28T02:06:19.612Z,0
2017-12-28T02:07:19.030Z,0
2017-12-28T02:08:19.340Z,0
2017-12-28T02:09:19.391Z,0
2017-12-28T02:10:19.647Z,0
2017-12-28T02:11:19.768Z,0
2017-12-28T02:12:19.858Z,0
2017-12-28T02:13:19.344Z,0
2017-12-28T02:14:19.560Z,0
2017-12-28T02:15:19.554Z,0
2017-12-28T02:16:20.418Z,0
2017-12-28T02:17:20.512Z,0
2017-12-28T02:18:20.660Z,0
2017-12-28T02:19:21.583Z,0
2017-12-28T02:20:20.802Z,0
2017-12-28T02:21:20.834Z,0
2017-12-28T02:22:20.586Z,0
2017-12-28T02:23:20.226Z,0
2017-12-28T02:24:22.256Z,0
2017-12-28T02:25:21.072Z,0
2017-12-28T02:26:21.600Z,0
2017-12-28T02:27:21.027Z,0
2017-12-28T02:28:21.623Z,0
2017-12-28T02:29:21.064Z,0
2017-12-28T02:30:22.601Z,0
2017-12-28T02:31:22.093Z,0
2017-12-28T02:32:22.065Z,0
2017-12-28T02:33:22.177Z,0
2017-12-28T02:34:22.108Z,0
2017-12-28T02:35:22.084Z,0
2017-12-28T02:36:22.711Z,0
2017-12-28T02:37:22.960Z,0
2017-12-28T02:38:22.674Z,0
2017-12-28T02:39:22.675Z,0
2017-12-28T02:40:23.768Z,0
2017-12-28T02:41:22.910Z,0
2017-12-28T02:42:23.180Z,0
2017-12-28T02:43:23.667Z,0
2017-12-28T02:44:23.908Z,0
2017-12-28T02:45:23.825Z,0
2017-12-28T02:46:23.431Z,0
2017-12-28T02:47:24.140Z,0
2017-12-28T02:48:23.927Z,0
2017-12-28T02:49:23.771Z,0
2017-12-28T02:50:23.862Z,0
2017-12-28T02:51:24.060Z,0
2017-12-28T02:52:24.262Z,0
2017-12-28T02:53:24.269Z,0
2017-12-28T02:54:24.262Z,0
2017-12-28T02:55:24.781Z,0
2017-12-28T02:56:24.669Z,0
2017-12-28T02:57:24.734Z,0
2017-12-28T02:58:24.510Z,0
2017-12-28T02:59:25.247Z,0
2017-12-28T03:00:24.731Z,0
2017-12-28T03:01:24.995Z,0
2017-12-28T03:02:25.472Z,0
2017-12-28T03:03:25.864Z,0
2017-12-28T03:04:25.521Z,0
2017-12-28T03:05:25.513Z,0
2017-12-28T03:06:25.952Z,0
2017-12-28T03:07:26.440Z,0
2017-12-28T03:08:26.451Z,0
2017-12-28T03:09:26.919Z,0
2017-12-28T03:10:27.160Z,0
2017-12-28T03:11:27.122Z,0
2017-12-28T03:12:27.837Z,0
2017-12-28T03:13:27.706Z,0
2017-12-28T03:14:27.681Z,0
2017-12-28T03:15:27.407Z,0
2017-12-28T03:16:28.223Z,0
2017-12-28T03:17:27.906Z,0
2017-12-28T03:18:28.628Z,0
2017-12-28T03:19:28.101Z,0
2017-12-28T03:20:28.340Z,0
2017-12-28T03:21:28.420Z,0
2017-12-28T03:22:28.493Z,0
2017-12-28T03:23:28.069Z,0
2017-12-28T03:24:28.013Z,0
2017-12-28T03:25:28.062Z,0
2017-12-28T03:26:28.585Z,0
2017-12-28T03:27:29.003Z,0
2017-12-28T03:28:29.278Z,0
2017-12-28T03:29:29.222Z,0
2017-12-28T03:30:29.169Z,0
2017-12-28T03:31:28.622Z,0
2017-12-28T03:32:29.530Z,0
2017-12-28T03:33:29.128Z,0
2017-12-28T03:34:29.841Z,0
2017-12-28T03:35:29.688Z,0
2017-12-28T03:36:29.401Z,0
2017-12-28T03:37:30.295Z,0
2017-12-28T03:38:29.709Z,0
2017-12-28T03:39:29.984Z,0
2017-12-28T03:40:30.486Z,0
2017-12-28T03:41:30.164Z,0
2017-12-28T03:42:30.599Z,0
2017-12-28T03:43:30.628Z,0
2017-12-28T03:44:30.905Z,0
2017-12-28T03:45:30.357Z,0
2017-12-28T03:46:31.290Z,0
2017-12-28T03:47:30.908Z,0
2017-12-28T03:48:30.351Z,0
2017-12-28T03:49:30.904Z,0
2017-12-28T03:50:31.085Z,0
2017-12-28T03:51:31.260Z,0
2017-12-28T03:52:31.906Z,0
2017-12-28T03:53:31.884Z,0
2017-12-28T03:54:31.913Z,0
2017-12-28T03:55:32.335Z,0
2017-12-28T03:56:32.510Z,0
2017-12-28T03:57:31.920Z,0
2017-12-28T03:58:32.897Z,0
2017-12-28T03:59:33.053Z,0
2017-12-28T04:00:32.687Z,0
2017-12-28T04:01:33.049Z,0
2017-12-28T04:02:33.927Z,0
2017-12-28T04:03:33.887Z,0
2017-12-28T04:04:33.354Z,0
2017-12-28T04:05:33.609Z,0
2017-12-28T04:06:33.797Z,0
2017-12-28T04:07:33.811Z,0
2017-12-28T04:08:34.106Z,0
2017-12-28T04:09:33.842Z,0
2017-12-28T04:10:34.538Z,0
2017-12-28T04:11:34.369Z,0
2017-12-28T04:12:34.829Z,0
2017-12-28T04:13:34.299Z,0
2017-12-28T04:14:34.325Z,0
2017-12-28T04:15:34.781Z,0
2017-12-28T04:16:35.331Z,0
2017-12-28T04:17:35.124Z,0
2017-12-28T04:18:35.495Z,0
2017-12-28T04:19:36.202Z,0
2017-12-28T04:20:35.743Z,0
2017-12-28T04:21:37.015Z,0
2017-12-28T04:22:36.142Z,0
2017-12-28T04:23:36.759Z,0
2017-12-28T04:24:36.383Z,0
2017-12-28T04:25:36.559Z,0
2017-12-28T04:26:36.841Z,0
2017-12-28T04:27:36.852Z,0
2017-12-28T04:28:37.385Z,0
2017-12-28T04:29:37.088Z,0
2017-12-28T04:30:37.265Z,0
2017-12-28T04:31:37.910Z,0
2017-12-28T04:32:37.372Z,0
2017-12-28T04:33:38.432Z,0
2017-12-28T04:34:38.441Z,0
2017-12-28T04:35:38.084Z,0
2017-12-28T04:36:38.283Z,0
2017-12-28T04:37:38.032Z,0
2017-12-28T04:38:38.580Z,0
2017-12-28T04:39:38.546Z,0
2017-12-28T04:40:38.626Z,0
2017-12-28T04:41:38.496Z,0
2017-12-28T04:42:38.769Z,0
2017-12-28T04:43:39.536Z,0
2017-12-28T04:44:41.245Z,0
2017-12-28T04:45:41.897Z,0
2017-12-28T04:46:56.127Z,0
2017-12-28T04:47:39.860Z,0
2017-12-28T04:48:40.875Z,0
2017-12-28T04:49:40.203Z,0
2017-12-28T04:50:39.353Z,0
2017-12-28T04:51:40.426Z,0
2017-12-28T04:52:40.731Z,0
2017-12-28T04:53:42.312Z,0
2017-12-28T04:54:40.730Z,0
2017-12-28T04:55:40.057Z,0
2017-12-28T04:56:39.594Z,0
2017-12-28T04:57:39.784Z,0
2017-12-28T04:58:39.860Z,0
2017-12-28T04:59:40.576Z,0
2017-12-28T05:01:12.231Z,0
2017-12-28T05:01:44.082Z,0
2017-12-28T05:02:43.815Z,0
2017-12-28T05:03:43.612Z,0
2017-12-28T05:04:45.166Z,0
2017-12-28T05:05:43.195Z,0
2017-12-28T05:06:45.302Z,0
2017-12-28T05:07:42.778Z,0
2017-12-28T05:08:43.673Z,0
2017-12-28T05:09:43.222Z,0
2017-12-28T05:10:44.628Z,0
2017-12-28T05:11:43.613Z,0
2017-12-28T05:12:43.303Z,0
2017-12-28T05:13:43.809Z,0
2017-12-28T05:14:44.379Z,0
2017-12-28T05:15:44.408Z,0
2017-12-28T05:16:44.205Z,0
2017-12-28T05:17:44.480Z,0
2017-12-28T05:18:44.945Z,0
2017-12-28T05:19:44.746Z,0
2017-12-28T05:20:45.191Z,0
2017-12-28T05:21:44.829Z,0
2017-12-28T05:22:44.891Z,0
2017-12-28T05:23:45.118Z,0
2017-12-28T05:24:45.888Z,0
2017-12-28T05:25:45.060Z,0
2017-12-28T05:26:45.429Z,0
2017-12-28T05:27:46.256Z,0
2017-12-28T05:28:46.489Z,0
2017-12-28T05:29:46.876Z,0
2017-12-28T05:30:47.030Z,0
2017-12-28T05:31:47.178Z,0
2017-12-28T05:32:47.818Z,0
2017-12-28T05:33:47.387Z,0
2017-12-28T05:34:48.108Z,0
2017-12-28T05:35:49.296Z,0
2017-12-28T05:36:48.775Z,0
2017-12-28T05:37:48.915Z,0
2017-12-28T05:38:49.483Z,0
2017-12-28T05:39:48.696Z,0
2017-12-28T05:40:48.607Z,0
2017-12-28T05:41:48.821Z,0
2017-12-28T05:42:48.812Z,0
2017-12-28T05:43:49.346Z,0
2017-12-28T05:44:49.664Z,0
2017-12-28T05:45:49.866Z,0
2017-12-28T05:46:48.820Z,0
2017-12-28T05:47:50.407Z,0
2017-12-28T05:48:49.546Z,0
2017-12-28T05:49:49.285Z,0
2017-12-28T05:50:50.049Z,0
2017-12-28T05:51:49.489Z,0
2017-12-28T05:52:50.419Z,0
2017-12-28T05:53:49.516Z,0
2017-12-28T05:54:49.911Z,0
2017-12-28T05:55:50.040Z,0
2017-12-28T05:56:50.324Z,0
2017-12-28T05:57:50.532Z,0
2017-12-28T05:58:50.261Z,0
2017-12-28T05:59:50.360Z,0
2017-12-28T06:00:50.680Z,0
2017-12-28T06:01:51.118Z,0
2017-12-28T06:02:51.281Z,0
2017-12-28T06:03:51.658Z,0
2017-12-28T06:04:52.266Z,0
2017-12-28T06:05:52.235Z,0
2017-12-28T06:06:51.252Z,0
2017-12-28T06:07:51.781Z,0
2017-12-28T06:08:51.771Z,0
2017-12-28T06:09:51.723Z,0
2017-12-28T06:10:51.897Z,0
2017-12-28T06:11:52.569Z,0
2017-12-28T06:12:52.400Z,0
2017-12-28T06:13:52.618Z,0
2017-12-28T06:14:52.472Z,0
2017-12-28T06:15:52.024Z,0
2017-12-28T06:16:52.415Z,0
2017-12-28T06:17:53.180Z,0
2017-12-28T06:18:52.724Z,0
2017-12-28T06:19:53.719Z,0
2017-12-28T06:20:53.566Z,0
2017-12-28T06:21:53.691Z,0
2017-12-28T06:22:52.701Z,0
2017-12-28T06:23:52.986Z,0
2017-12-28T06:24:53.541Z,0
2017-12-28T06:25:53.414Z,0
2017-12-28T06:26:53.536Z,0
2017-12-28T06:27:53.389Z,0
2017-12-28T06:28:53.614Z,0
2017-12-28T06:29:54.043Z,0
2017-12-28T06:30:54.814Z,0
2017-12-28T06:31:54.592Z,0
2017-12-28T06:32:55.045Z,0
2017-12-28T06:33:55.296Z,0
2017-12-28T06:34:55.444Z,0
2017-12-28T06:35:54.295Z,0
2017-12-28T06:36:54.894Z,0
2017-12-28T06:37:55.329Z,0
2017-12-28T06:38:55.466Z,0
2017-12-28T06:39:56.335Z,0
2017-12-28T06:40:55.951Z,0
2017-12-28T06:41:55.847Z,0
2017-12-28T06:42:56.601Z,0
2017-12-28T06:43:56.336Z,0
2017-12-28T06:44:56.350Z,0
2017-12-28T06:45:56.437Z,0
2017-12-28T06:46:56.713Z,0
2017-12-28T06:47:57.660Z,0
2017-12-28T06:48:57.274Z,0
2017-12-28T06:49:57.265Z,0
2017-12-28T06:50:57.645Z,0
2017-12-28T06:51:57.607Z,0
2017-12-28T06:52:57.357Z,0
2017-12-28T06:53:57.006Z,0
2017-12-28T06:54:57.445Z,0
2017-12-28T06:55:57.958Z,0
2017-12-28T06:56:57.974Z,0
2017-12-28T06:57:58.123Z,0
2017-12-28T06:58:58.064Z,0
2017-12-28T06:59:57.970Z,0
2017-12-28T07:00:58.244Z,0
2017-12-28T07:01:57.633Z,0
2017-12-28T07:02:57.909Z,0
2017-12-28T07:03:58.336Z,0
2017-12-28T07:04:58.752Z,0
2017-12-28T07:05:59.154Z,0
2017-12-28T07:06:59.577Z,0
2017-12-28T07:07:59.424Z,0
2017-12-28T07:08:59.101Z,0
2017-12-28T07:09:59.669Z,0
2017-12-28T07:10:58.827Z,0
2017-12-28T07:11:59.701Z,0
2017-12-28T07:12:59.525Z,0
2017-12-28T07:14:01.207Z,0
2017-12-28T07:14:58.959Z,0
2017-12-28T07:15:59.794Z,0
2017-12-28T07:16:59.511Z,0
2017-12-28T07:18:00.818Z,0
2017-12-28T07:19:00.955Z,0
2017-12-28T07:20:01.454Z,0
2017-12-28T07:21:00.950Z,0
2017-12-28T07:22:01.763Z,0
2017-12-28T07:23:01.120Z,0
2017-12-28T07:24:01.136Z,0
2017-12-28T07:25:01.320Z,0
2017-12-28T07:26:01.569Z,5
2017-12-28T07:27:02.432Z,5
2017-12-28T07:28:02.347Z,5
2017-12-28T07:29:02.501Z,5
2017-12-28T07:30:02.114Z,5
2017-12-28T07:31:02.299Z,5
2017-12-28T07:32:01.977Z,5
2017-12-28T07:33:02.681Z,5
2017-12-28T07:34:02.559Z,5
2017-12-28T07:35:04.030Z,5
2017-12-28T07:36:05.537Z,5
2017-12-28T07:37:04.369Z,5
2017-12-28T07:38:04.150Z,10
2017-12-28T07:39:04.460Z,10
2017-12-28T07:40:05.077Z,10
2017-12-28T07:41:03.975Z,10
2017-12-28T07:42:03.919Z,10
2017-12-28T07:43:03.571Z,10
2017-12-28T07:44:04.471Z,10
2017-12-28T07:45:04.500Z,10
2017-12-28T07:46:04.294Z,10
2017-12-28T07:47:04.035Z,10
2017-12-28T07:48:03.681Z,10
2017-12-28T07:49:05.577Z,15
2017-12-28T07:50:03.934Z,15
2017-12-28T07:51:03.579Z,15
2017-12-28T07:52:04.611Z,15
2017-12-28T07:53:04.365Z,15
2017-12-28T07:54:04.516Z,15
2017-12-28T07:55:04.202Z,15
2017-12-28T07:56:04.951Z,15
2017-12-28T07:57:05.353Z,15
2017-12-28T07:58:05.904Z,15
2017-12-28T07:59:05.618Z,15
2017-12-28T08:00:05.734Z,15
2017-12-28T08:01:05.879Z,20
2017-12-28T08:02:05.633Z,20
2017-12-28T08:03:05.499Z,20
2017-12-28T08:04:06.459Z,20
2017-12-28T08:05:05.584Z,20
2017-12-28T08:06:06.522Z,20
2017-12-28T08:07:06.765Z,20
2017-12-28T08:08:07.420Z,25
2017-12-28T08:09:08.269Z,25
2017-12-28T08:10:06.769Z,25
2017-12-28T08:11:06.724Z,25
2017-12-28T08:12:06.991Z,25
2017-12-28T08:13:06.916Z,25
2017-12-28T08:14:07.446Z,25
2017-12-28T08:15:07.971Z,30
2017-12-28T08:16:07.955Z,30
2017-12-28T08:17:08.104Z,30
2017-12-28T08:18:09.400Z,30
2017-12-28T08:19:08.603Z,35
2017-12-28T08:20:08.632Z,35
2017-12-28T08:21:08.680Z,35
2017-12-28T08:22:09.160Z,40
2017-12-28T08:23:08.934Z,40
2017-12-28T08:24:08.690Z,40
2017-12-28T08:25:09.074Z,45
2017-12-28T08:26:08.447Z,45
2017-12-28T08:27:08.766Z,45
2017-12-28T08:28:08.710Z,45
2017-12-28T08:29:09.478Z,45
2017-12-28T08:30:10.203Z,50
2017-12-28T08:31:09.832Z,50
2017-12-28T08:32:09.979Z,50
2017-12-28T08:33:10.721Z,50
2017-12-28T08:34:10.727Z,50
2017-12-28T08:35:10.803Z,55
2017-12-28T08:36:11.271Z,55
2017-12-28T08:37:11.231Z,55
2017-12-28T08:38:10.938Z,55
2017-12-28T08:39:11.209Z,60
2017-12-28T08:40:10.255Z,60
2017-12-28T08:41:11.194Z,60
2017-12-28T08:42:10.804Z,60
2017-12-28T08:43:11.944Z,60
2017-12-28T08:44:11.760Z,60
2017-12-28T08:45:11.886Z,65
2017-12-28T08:46:11.689Z,65
2017-12-28T08:47:12.467Z,70
2017-12-28T08:48:12.560Z,70
2017-12-28T08:50:13.001Z,75
2017-12-28T08:51:11.767Z,75
2017-12-28T08:52:12.771Z,75
2017-12-28T08:53:12.813Z,75
2017-12-28T08:54:13.611Z,80
2017-12-28T08:55:14.260Z,80
2017-12-28T08:56:14.238Z,85
2017-12-28T08:57:13.844Z,80
2017-12-28T08:58:14.112Z,80
2017-12-28T08:59:11.434Z,80
2017-12-28T09:01:11.573Z,80
2017-12-28T09:01:26.245Z,80
2017-12-28T09:02:27.297Z,85
2017-12-28T09:03:26.589Z,85
2017-12-28T09:04:27.020Z,90
2017-12-28T09:05:26.288Z,95
2017-12-28T09:06:27.725Z,95
2017-12-28T09:07:27.833Z,95
2017-12-28T09:08:28.112Z,90
2017-12-28T09:09:28.585Z,95
2017-12-28T09:10:26.766Z,100
2017-12-28T09:11:27.103Z,100
2017-12-28T09:12:27.894Z,100
2017-12-28T09:13:27.544Z,105
2017-12-28T09:14:28.465Z,100
2017-12-28T09:15:28.700Z,95
2017-12-28T09:16:27.805Z,95
2017-12-28T09:17:27.496Z,95
2017-12-28T09:18:27.596Z,100
2017-12-28T09:19:28.385Z,105
2017-12-28T09:20:28.007Z,105
2017-12-28T09:21:28.572Z,100
2017-12-28T09:22:28.157Z,100
2017-12-28T09:23:29.147Z,95
2017-12-28T09:24:28.766Z,85
2017-12-28T09:25:28.712Z,80
2017-12-28T09:26:28.539Z,80
2017-12-28T09:27:28.694Z,85
2017-12-28T09:28:29.178Z,85
2017-12-28T09:29:28.438Z,80
2017-12-28T09:30:28.712Z,75
2017-12-28T09:31:28.902Z,75
2017-12-28T09:32:29.452Z,75
2017-12-28T09:33:29.185Z,70
2017-12-28T09:34:29.579Z,70
2017-12-28T09:35:29.843Z,75
2017-12-28T09:36:29.832Z,80
2017-12-28T09:37:29.869Z,80
2017-12-28T09:38:31.051Z,85
2017-12-28T09:39:31.284Z,95
2017-12-28T09:40:31.118Z,100
2017-12-28T09:41:32.341Z,105
2017-12-28T09:42:31.141Z,105
2017-12-28T09:43:32.128Z,105
2017-12-28T09:44:30.418Z,105
2017-12-28T09:45:30.933Z,110
2017-12-28T09:46:31.171Z,110
2017-12-28T09:47:30.147Z,115
2017-12-28T09:48:30.428Z,105
2017-12-28T09:49:30.223Z,110
2017-12-28T09:50:30.470Z,120
2017-12-28T09:51:30.836Z,125
2017-12-28T09:52:30.614Z,125
2017-12-28T09:53:31.000Z,120
2017-12-28T09:54:29.984Z,125
2017-12-28T09:55:30.008Z,130
2017-12-28T09:56:30.329Z,130
2017-12-28T09:57:30.438Z,135
2017-12-28T09:58:30.723Z,130
2017-12-28T09:59:30.856Z,135
2017-12-28T10:00:30.700Z,140
2017-12-28T10:01:30.876Z,140
2017-12-28T10:02:30.190Z,145
2017-12-28T10:03:30.720Z,145
2017-12-28T10:04:30.627Z,145
2017-12-28T10:05:31.098Z,145
2017-12-28T10:06:31.312Z,145
2017-12-28T10:07:30.957Z,145
2017-12-28T10:08:32.102Z,145
2017-12-28T10:09:31.525Z,145
2017-12-28T10:10:31.986Z,145
2017-12-28T10:11:32.483Z,140
2017-12-28T10:12:32.719Z,140
2017-12-28T10:13:33.136Z,145
2017-12-28T10:14:33.382Z,135
2017-12-28T10:15:32.915Z,130
2017-12-28T10:16:33.350Z,125
2017-12-28T10:17:35.048Z,120
2017-12-28T10:18:33.897Z,120
2017-12-28T10:19:34.837Z,110
2017-12-28T10:20:34.932Z,115
2017-12-28T10:21:34.551Z,115
2017-12-28T10:22:34.960Z,105
2017-12-28T10:23:35.431Z,105
2017-12-28T10:24:34.622Z,95
2017-12-28T10:25:34.675Z,110
2017-12-28T10:26:34.759Z,105
2017-12-28T10:27:35.294Z,105
2017-12-28T10:28:34.902Z,110
2017-12-28T10:29:35.545Z,110
2017-12-28T10:30:35.400Z,100
2017-12-28T10:31:34.383Z,110
2017-12-28T10:32:34.543Z,105
2017-12-28T10:33:34.243Z,95
2017-12-28T10:34:34.507Z,100
2017-12-28T10:35:34.777Z,100
2017-12-28T10:36:34.440Z,95
2017-12-28T10:37:33.228Z,95
2017-12-28T10:38:33.255Z,90
2017-12-28T10:39:33.207Z,90
2017-12-28T10:40:33.465Z,95
2017-12-28T10:41:33.844Z,95
2017-12-28T10:42:33.706Z,105
2017-12-28T10:43:34.297Z,105
2017-12-28T10:44:33.857Z,100
2017-12-28T10:45:34.054Z,105
2017-12-28T10:46:34.111Z,100
2017-12-28T10:47:34.610Z,85
2017-12-28T10:48:34.619Z,95
2017-12-28T10:49:34.620Z,100
2017-12-28T10:50:34.473Z,120
2017-12-28T10:51:33.936Z,120
2017-12-28T10:52:34.445Z,115
2017-12-28T10:53:35.217Z,110
2017-12-28T10:54:34.977Z,115
2017-12-28T10:55:35.040Z,115
2017-12-28T10:56:35.023Z,120
2017-12-28T10:57:34.726Z,115
2017-12-28T10:58:34.786Z,120
2017-12-28T10:59:35.087Z,120
2017-12-28T11:00:35.458Z,115
2017-12-28T11:01:34.959Z,115
2017-12-28T11:02:35.811Z,110
2017-12-28T11:03:35.878Z,120
2017-12-28T11:04:36.046Z,100
2017-12-28T11:05:35.218Z,85
2017-12-28T11:06:36.381Z,90
2017-12-28T11:07:35.695Z,100
2017-12-28T11:08:36.175Z,100
2017-12-28T11:09:35.948Z,105
2017-12-28T11:10:36.576Z,90
2017-12-28T11:11:35.970Z,105
2017-12-28T11:12:36.126Z,110
2017-12-28T11:13:35.711Z,125
2017-12-28T11:14:36.502Z,120
2017-12-28T11:15:36.182Z,115
2017-12-28T11:16:36.142Z,115
2017-12-28T11:17:37.899Z,120
2017-12-28T11:18:37.123Z,110
2017-12-28T11:19:37.160Z,95
2017-12-28T11:20:36.932Z,95
2017-12-28T11:21:38.777Z,80
2017-12-28T11:22:37.301Z,85
2017-12-28T11:23:38.181Z,85
2017-12-28T11:24:37.361Z,80
2017-12-28T11:25:37.449Z,85
2017-12-28T11:26:38.432Z,85
2017-12-28T11:27:38.036Z,85
2017-12-28T11:28:38.333Z,85
2017-12-28T11:29:38.862Z,80
2017-12-28T11:30:38.557Z,100
2017-12-28T11:31:39.520Z,105
2017-12-28T11:32:38.002Z,100
2017-12-28T11:33:38.473Z,85
2017-12-28T11:34:39.447Z,80
2017-12-28T11:35:39.499Z,90
2017-12-28T11:36:39.190Z,90
2017-12-28T11:37:55.075Z,105
2017-12-28T11:38:41.331Z,100
2017-12-28T11:39:41.592Z,115
2017-12-28T11:40:42.349Z,110
2017-12-28T11:41:41.116Z,110
2017-12-28T11:42:41.380Z,115
2017-12-28T11:43:41.590Z,135
2017-12-28T11:44:42.271Z,130
2017-12-28T11:45:55.732Z,125
2017-12-28T11:46:39.820Z,135
2017-12-28T11:47:42.155Z,110
2017-12-28T11:48:40.675Z,125
2017-12-28T11:49:41.875Z,135
2017-12-28T11:50:40.038Z,130
2017-12-28T11:51:40.174Z,135
2017-12-28T11:52:40.558Z,120
2017-12-28T11:54:39.668Z,130
2017-12-28T11:55:40.203Z,140
2017-12-28T11:56:54.870Z,125
2017-12-28T11:57:40.184Z,125
2017-12-28T11:58:39.952Z,135
2017-12-28T11:59:40.402Z,135
2017-12-28T12:00:41.051Z,130
2017-12-28T12:01:40.755Z,130
2017-12-28T12:02:41.522Z,130
2017-12-28T12:03:40.730Z,120
2017-12-28T12:04:41.608Z,115
2017-12-28T12:05:40.693Z,115
2017-12-28T12:06:40.888Z,110
2017-12-28T12:07:41.076Z,125
2017-12-28T12:08:41.265Z,125
2017-12-28T12:09:41.315Z,115
2017-12-28T12:10:41.835Z,100
2017-12-28T12:11:41.785Z,95
2017-12-28T12:12:42.267Z,100
2017-12-28T12:13:42.947Z,100
2017-12-28T12:14:42.856Z,110
2017-12-28T12:15:43.532Z,95
2017-12-28T12:16:43.981Z,100
2017-12-28T12:17:43.714Z,95
2017-12-28T12:18:44.156Z,95
2017-12-28T12:19:43.961Z,90
2017-12-28T12:20:43.123Z,100
2017-12-28T12:21:42.893Z,105
2017-12-28T12:22:43.615Z,105
2017-12-28T12:23:43.859Z,95
2017-12-28T12:24:44.078Z,100
2017-12-28T12:25:44.468Z,95
2017-12-28T12:26:43.569Z,105
2017-12-28T12:27:43.658Z,105
2017-12-28T12:28:43.629Z,105
2017-12-28T12:29:44.554Z,105
2017-12-28T12:30:44.397Z,110
2017-12-28T12:31:44.897Z,115
2017-12-28T12:32:43.956Z,115
2017-12-28T12:33:44.404Z,110
2017-12-28T12:34:44.400Z,110
2017-12-28T12:35:44.936Z,110
2017-12-28T12:36:44.622Z,105
2017-12-28T12:37:44.636Z,105
2017-12-28T12:38:45.330Z,95
2017-12-28T12:39:45.836Z,95
2017-12-28T12:40:45.054Z,90
2017-12-28T12:41:45.496Z,90
2017-12-28T12:42:45.648Z,90
2017-12-28T12:43:45.984Z,95
2017-12-28T12:44:46.498Z,100
2017-12-28T12:45:46.128Z,95
2017-12-28T12:46:46.393Z,95
2017-12-28T12:47:46.832Z,95
2017-12-28T12:48:47.110Z,100
2017-12-28T12:49:46.952Z,85
2017-12-28T12:50:46.904Z,85
2017-12-28T12:51:47.240Z,85
2017-12-28T12:52:47.164Z,75
2017-12-28T12:53:47.259Z,75
2017-12-28T12:54:47.665Z,80
2017-12-28T12:55:48.058Z,80
2017-12-28T12:56:48.550Z,85
2017-12-28T12:57:48.362Z,85
2017-12-28T12:58:48.649Z,85
2017-12-28T12:59:48.904Z,75
2017-12-28T13:00:48.963Z,80
2017-12-28T13:01:48.977Z,80
2017-12-28T13:02:49.785Z,80
2017-12-28T13:03:49.517Z,80
2017-12-28T13:04:50.324Z,75
2017-12-28T13:05:50.428Z,65
2017-12-28T13:06:50.644Z,60
2017-12-28T13:07:51.096Z,70
2017-12-28T13:08:52.404Z,70
2017-12-28T13:09:51.605Z,75
2017-12-28T13:10:51.692Z,70
2017-12-28T13:11:53.469Z,70
2017-12-28T13:12:51.365Z,75
2017-12-28T13:13:51.394Z,70
2017-12-28T13:14:51.772Z,70
2017-12-28T13:15:51.990Z,75
2017-12-28T13:16:51.404Z,70
2017-12-28T13:17:52.045Z,65
2017-12-28T13:18:52.438Z,70
2017-12-28T13:19:52.128Z,65
2017-12-28T13:20:53.343Z,65
2017-12-28T13:21:52.593Z,65
2017-12-28T13:22:53.121Z,70
2017-12-28T13:23:53.238Z,75
2017-12-28T13:24:52.383Z,75
2017-12-28T13:25:53.233Z,70
2017-12-28T13:26:53.286Z,70
2017-12-28T13:27:52.475Z,70
2017-12-28T13:28:53.044Z,65
2017-12-28T13:29:53.195Z,70
2017-12-28T13:30:53.634Z,70
2017-12-28T13:31:53.591Z,70
2017-12-28T13:32:54.327Z,65
2017-12-28T13:33:54.318Z,65
2017-12-28T13:34:54.829Z,65
2017-12-28T13:35:54.621Z,65
2017-12-28T13:36:54.358Z,65
2017-12-28T13:37:54.230Z,60
2017-12-28T13:38:54.822Z,60
2017-12-28T13:39:55.980Z,60
2017-12-28T13:40:55.213Z,65
2017-12-28T13:41:55.833Z,60
2017-12-28T13:42:55.403Z,60
2017-12-28T13:43:55.652Z,65
2017-12-28T13:44:56.430Z,65
2017-12-28T13:45:56.333Z,65
2017-12-28T13:46:55.740Z,60
2017-12-28T13:47:56.394Z,60
2017-12-28T13:48:56.097Z,60
2017-12-28T13:49:56.401Z,60
2017-12-28T13:50:56.249Z,60
2017-12-28T13:51:56.412Z,60
2017-12-28T13:52:57.779Z,60
2017-12-28T13:53:56.391Z,60
2017-12-28T13:54:58.567Z,60
2017-12-28T13:55:58.884Z,55
2017-12-28T13:56:57.328Z,50
2017-12-28T13:57:56.468Z,55
2017-12-28T13:58:57.185Z,55
2017-12-28T13:59:59.127Z,55
2017-12-28T14:00:58.188Z,55
2017-12-28T14:01:57.610Z,55
2017-12-28T14:02:56.094Z,50
2017-12-28T14:03:58.279Z,50
2017-12-28T14:04:58.161Z,50
2017-12-28T14:05:57.033Z,50
2017-12-28T14:06:58.010Z,45
2017-12-28T14:07:57.499Z,45
2017-12-28T14:08:57.880Z,45
2017-12-28T14:09:57.062Z,45
2017-12-28T14:10:58.332Z,45
2017-12-28T14:11:57.896Z,45
2017-12-28T14:12:58.341Z,50
2017-12-28T14:13:58.686Z,50
2017-12-28T14:14:59.570Z,45
2017-12-28T14:15:58.661Z,40
2017-12-28T14:16:58.893Z,45
2017-12-28T14:17:59.907Z,45
2017-12-28T14:18:58.988Z,45
2017-12-28T14:19:59.416Z,45
2017-12-28T14:20:59.890Z,45
2017-12-28T14:21:59.606Z,45
2017-12-28T14:23:00.037Z,40
2017-12-28T14:24:00.067Z,45
2017-12-28T14:25:00.216Z,45
2017-12-28T14:26:00.912Z,45
2017-12-28T14:27:01.387Z,45
2017-12-28T14:28:01.084Z,45
2017-12-28T14:29:01.152Z,40
2017-12-28T14:30:02.889Z,40